createdAt,value
2023-11-02T00:00:21.357Z,20
2023-11-02T00:15:22.211Z,20
2023-11-02T00:20:21.332Z,19
2023-11-02T00:25:21.857Z,19
2023-11-02T00:40:21.406Z,19
2023-11-02T00:45:21.412Z,20
2023-11-02T00:50:21.405Z,19
2023-11-02T00:55:21.418Z,18
2023-11-02T01:00:21.490Z,20
2023-11-02T01:05:21.433Z,19
2023-11-02T01:10:21.444Z,20
2023-11-02T01:15:21.489Z,19
2023-11-02T01:20:21.457Z,19
2023-11-02T01:25:21.498Z,21
2023-11-02T01:30:22.016Z,19
2023-11-02T01:35:21.714Z,19
2023-11-02T01:40:21.498Z,20
2023-11-02T01:45:21.621Z,19
2023-11-02T01:50:21.530Z,18
2023-11-02T01:55:22.055Z,19
2023-11-02T02:00:22.068Z,20
2023-11-02T02:05:22.218Z,21
2023-11-02T02:10:21.526Z,20
2023-11-02T02:15:22.248Z,20
2023-11-02T02:20:22.084Z,20
2023-11-02T02:25:21.605Z,20
2023-11-02T02:45:22.504Z,20
2023-11-02T02:50:21.655Z,20
2023-11-02T02:55:21.616Z,20
2023-11-02T03:00:21.646Z,20
2023-11-02T03:05:22.187Z,20
2023-11-02T03:15:21.699Z,21
2023-11-02T03:20:22.354Z,21
2023-11-02T03:25:21.722Z,21
2023-11-02T03:30:21.690Z,21
2023-11-02T03:50:22.596Z,21
2023-11-02T03:55:22.287Z,21
2023-11-02T04:00:21.768Z,21
2023-11-02T04:05:22.250Z,21
2023-11-02T04:10:21.864Z,21
2023-11-02T04:15:21.787Z,19
2023-11-02T04:30:22.662Z,19
2023-11-02T04:35:21.810Z,21
2023-11-02T04:40:21.804Z,19
2023-11-02T04:45:21.897Z,19
2023-11-02T04:50:22.349Z,19
2023-11-02T05:15:22.736Z,19
2023-11-02T05:20:21.917Z,20
2023-11-02T05:25:21.931Z,20
2023-11-02T05:30:21.960Z,22
2023-11-02T05:35:21.963Z,22
2023-11-02T05:40:22.473Z,22
2023-11-02T05:55:22.818Z,22
2023-11-02T06:00:21.992Z,20
2023-11-02T06:05:22.607Z,21
2023-11-02T06:10:22.005Z,21
2023-11-02T06:15:22.476Z,20
2023-11-02T06:20:22.708Z,20
2023-11-02T06:25:22.535Z,20
2023-11-02T06:30:22.557Z,20
2023-11-02T06:35:22.513Z,20
2023-11-02T06:40:22.038Z,20
2023-11-02T06:45:22.861Z,20
2023-11-02T06:50:22.563Z,19
2023-11-02T06:55:22.193Z,21
2023-11-02T07:00:22.657Z,19
2023-11-02T07:05:22.130Z,19
2023-11-02T07:10:22.107Z,21
2023-11-02T07:15:22.608Z,21
2023-11-02T07:20:22.113Z,19
2023-11-02T07:25:22.727Z,19
2023-11-02T07:30:22.635Z,20
2023-11-02T07:35:22.626Z,21
2023-11-02T07:40:22.828Z,21
2023-11-02T07:45:22.765Z,20
2023-11-02T07:50:22.901Z,20
2023-11-02T07:55:22.663Z,21
2023-11-02T08:00:22.724Z,22
2023-11-02T08:05:22.192Z,23
2023-11-02T08:10:22.702Z,23
2023-11-02T08:15:22.825Z,21
2023-11-02T08:20:22.220Z,21
2023-11-02T08:25:22.738Z,20
2023-11-02T08:30:22.268Z,21
2023-11-02T08:35:22.678Z,20
2023-11-02T08:40:22.398Z,22
2023-11-02T08:45:22.947Z,21
2023-11-02T08:50:22.832Z,19
2023-11-02T08:55:22.299Z,20
2023-11-02T09:00:22.353Z,22
2023-11-02T09:05:23.387Z,22
2023-11-02T09:10:22.303Z,20
2023-11-02T09:15:22.979Z,21
2023-11-02T09:35:23.199Z,21
2023-11-02T09:40:22.868Z,23
2023-11-02T09:45:22.933Z,20
2023-11-02T09:50:22.441Z,19
2023-11-02T09:55:22.385Z,20
2023-11-02T10:00:22.991Z,19
2023-11-02T10:05:23.993Z,19
2023-11-02T10:10:22.435Z,18
2023-11-02T10:15:22.483Z,18
2023-11-02T10:20:23.000Z,17
2023-11-02T10:30:23.010Z,18
2023-11-02T10:45:23.334Z,18
2023-11-02T10:50:22.509Z,19
2023-11-02T10:55:22.508Z,17
2023-11-02T11:05:22.546Z,17
2023-11-02T11:10:23.146Z,18
2023-11-02T11:15:23.070Z,17
2023-11-02T11:20:22.566Z,18
2023-11-02T11:25:23.064Z,20
2023-11-02T11:30:23.165Z,19
2023-11-02T11:35:22.594Z,18
2023-11-02T11:40:22.590Z,17
2023-11-02T11:45:23.085Z,18
2023-11-02T12:00:23.143Z,17
2023-11-02T12:05:23.174Z,17
2023-11-02T12:10:22.639Z,17
2023-11-02T12:15:23.804Z,16
2023-11-02T12:20:23.172Z,16
2023-11-02T12:40:23.555Z,16
2023-11-02T12:45:23.293Z,17
2023-11-02T12:50:23.255Z,17
2023-11-02T12:55:22.726Z,18
2023-11-02T13:00:22.942Z,17
2023-11-02T13:05:23.271Z,17
2023-11-02T13:10:23.240Z,17
2023-11-02T13:15:23.250Z,17
2023-11-02T13:20:22.826Z,17
2023-11-02T13:45:23.555Z,17
2023-11-02T13:50:22.912Z,17
2023-11-02T13:55:22.813Z,17
2023-11-02T14:00:22.980Z,16
2023-11-02T14:05:23.167Z,17
2023-11-02T14:10:23.008Z,17
2023-11-02T14:15:23.623Z,17
2023-11-02T14:20:22.885Z,16
2023-11-02T14:25:22.902Z,18
2023-11-02T14:30:23.437Z,17
2023-11-02T14:35:23.431Z,18
2023-11-02T14:40:23.416Z,17
2023-11-02T14:45:23.445Z,17
2023-11-02T15:05:23.808Z,17
2023-11-02T15:10:23.477Z,17
2023-11-02T15:15:23.512Z,17
2023-11-02T15:25:23.015Z,18
2023-11-02T15:30:23.034Z,18
2023-11-02T15:35:23.563Z,20
2023-11-02T15:40:23.122Z,18
2023-11-02T15:45:23.440Z,18
2023-11-02T16:00:23.928Z,18
2023-11-02T16:05:23.047Z,17
2023-11-02T16:10:23.050Z,17
2023-11-02T16:30:23.988Z,17
2023-11-02T16:45:23.148Z,17
2023-11-02T16:50:23.151Z,17
2023-11-02T16:55:23.143Z,17
2023-11-02T17:10:23.210Z,18
2023-11-02T17:15:23.792Z,19
2023-11-02T17:40:24.279Z,19
2023-11-02T17:45:23.777Z,18
2023-11-02T17:50:23.767Z,17
2023-11-02T17:55:23.256Z,17
2023-11-02T18:00:23.835Z,17
2023-11-02T18:05:24.064Z,18
2023-11-02T18:10:23.302Z,17
2023-11-02T18:15:23.293Z,17
2023-11-02T18:35:24.187Z,17
2023-11-02T18:40:23.865Z,17
2023-11-02T18:55:24.230Z,17
2023-11-02T19:00:23.492Z,18
2023-11-02T19:15:24.241Z,18
2023-11-02T19:20:24.005Z,19
2023-11-02T19:25:23.395Z,17
2023-11-02T19:45:24.262Z,17
2023-11-02T19:50:23.485Z,16
2023-11-02T19:55:23.518Z,16
2023-11-02T20:00:23.996Z,16
2023-11-02T20:15:24.305Z,16
2023-11-02T20:20:23.543Z,16
2023-11-02T20:25:23.511Z,18
2023-11-02T20:30:23.520Z,18
2023-11-02T20:35:24.065Z,19
2023-11-02T20:40:23.664Z,17
2023-11-02T20:45:23.556Z,18
2023-11-02T21:00:24.447Z,18
2023-11-02T21:05:23.585Z,18
2023-11-02T21:10:24.117Z,17
2023-11-02T21:15:23.637Z,21
2023-11-02T21:25:23.624Z,17
2023-11-02T21:40:24.536Z,17
2023-11-02T21:45:23.693Z,17
2023-11-02T22:00:24.508Z,17
2023-11-02T22:05:23.745Z,18
2023-11-02T22:10:23.728Z,18
2023-11-02T22:30:24.612Z,18
2023-11-02T22:35:24.286Z,17
2023-11-02T22:40:23.768Z,17
2023-11-02T22:45:23.786Z,18
2023-11-02T22:50:23.821Z,19
2023-11-02T23:05:24.666Z,19
2023-11-02T23:15:24.352Z,16
2023-11-02T23:20:24.488Z,18
2023-11-02T23:25:24.368Z,17
2023-11-02T23:30:23.973Z,17
2023-11-02T23:45:24.778Z,17
2023-11-02T23:50:23.911Z,20
